Time;durP1;ratioP1;P1;durP2;ratioP2;P2;SDS_P1;SDS_P2;PMS_P1;PMS_P2;Temp;Humidity;BMP_temperature;BMP_pressure;BME280_temperature;BME280_humidity;BME280_pressure;Samples;Min_cycle;Max_cycle;Signal;HPM_P1;HPM_P2
2022/08/08 00:00:28;;;;;;;8.30;5.83;;;;;;;14.36;85.37;102520.72;4994240;28;20852;-70
2022/08/08 00:03:05;;;;;;;7.00;5.60;;;;;;;14.36;85.25;102505.25;4994320;28;20604;-69
2022/08/08 00:05:38;;;;;;;6.50;5.43;;;;;;;14.34;84.48;102513.78;4994855;28;20191;-70
2022/08/08 00:08:07;;;;;;;8.23;5.93;;;;;;;14.32;84.52;102510.28;4994007;28;20187;-70
2022/08/08 00:10:55;;;;;;;7.77;6.10;;;;;;;14.31;84.68;102509.41;4997667;28;20176;-70
2022/08/08 00:13:59;;;;;;;7.37;5.83;;;;;;;14.23;85.62;102505.69;5011787;28;20210;-69
2022/08/08 00:16:38;;;;;;;6.63;5.53;;;;;;;14.21;85.68;102509.94;4991878;28;20614;-70
2022/08/08 00:19:07;;;;;;;6.77;5.40;;;;;;;14.21;84.83;102506.47;5002505;28;20201;-69
2022/08/08 00:21:37;;;;;;;6.13;5.20;;;;;;;14.13;85.55;102506.22;4993856;28;20228;-70
2022/08/08 00:24:12;;;;;;;7.33;5.37;;;;;;;14.21;85.03;102501.31;4993892;28;20184;-70
2022/08/08 00:26:51;;;;;;;6.40;5.67;;;;;;;14.17;85.10;102500.31;4998150;28;20191;-70
2022/08/08 00:29:45;;;;;;;6.97;5.50;;;;;;;14.06;85.48;102491.41;4992577;28;20212;-70
2022/08/08 00:32:20;;;;;;;6.50;5.50;;;;;;;14.04;86.13;102489.59;4994435;28;20218;-69
2022/08/08 00:37:38;;;;;;;7.57;6.20;;;;;;;14.00;85.59;102492.91;4993776;28;20206;-71
2022/08/08 00:40:13;;;;;;;7.67;5.93;;;;;;;13.96;85.42;102489.38;4995518;28;20300;-70
2022/08/08 00:42:57;;;;;;;7.37;6.00;;;;;;;13.97;84.67;102490.22;4995998;28;20265;-71
2022/08/08 00:45:38;;;;;;;7.77;6.03;;;;;;;13.83;85.28;102489.78;4993464;28;20549;-70
2022/08/08 00:48:29;;;;;;;7.10;6.40;;;;;;;13.85;85.69;102495.00;4975759;28;20222;-70
2022/08/08 00:51:07;;;;;;;8.77;6.30;;;;;;;13.78;86.13;102498.19;4993511;28;20555;-71
2022/08/08 00:54:02;;;;;;;7.67;5.77;;;;;;;13.75;85.84;102501.53;4995447;28;20645;-71
2022/08/08 00:56:36;;;;;;;8.17;5.50;;;;;;;13.75;85.93;102492.91;4991181;28;20328;-70
2022/08/08 00:59:21;;;;;;;7.23;5.70;;;;;;;13.76;85.46;102497.25;5009238;28;20205;-69
2022/08/08 01:02:05;;;;;;;6.30;5.43;;;;;;;13.64;85.95;102492.59;5002639;28;20295;-70
2022/08/08 01:04:34;;;;;;;6.90;5.67;;;;;;;13.66;86.37;102495.19;4991020;28;20204;-70
2022/08/08 01:07:31;;;;;;;7.27;5.47;;;;;;;13.69;85.94;102492.72;4991330;28;20183;-70
2022/08/08 01:10:18;;;;;;;7.80;6.13;;;;;;;13.64;85.67;102487.44;4993746;28;20180;-70
2022/08/08 01:13:15;;;;;;;8.03;6.47;;;;;;;13.66;86.56;102490.91;5010693;28;20214;-69
2022/08/08 01:15:56;;;;;;;7.63;5.97;;;;;;;13.60;86.71;102497.56;5009686;28;20567;-70
2022/08/08 01:18:24;;;;;;;8.50;6.07;;;;;;;13.55;86.97;102488.81;4995175;28;20206;-71
2022/08/08 01:21:12;;;;;;;7.67;6.20;;;;;;;13.57;86.09;102494.88;5007055;28;20215;-70
2022/08/08 01:23:48;;;;;;;6.30;5.70;;;;;;;13.49;86.46;102494.63;5010540;28;20672;-69
2022/08/08 01:26:14;;;;;;;6.53;5.90;;;;;;;13.48;85.89;102498.03;5009128;28;20277;-70
2022/08/08 01:28:51;;;;;;;6.53;5.67;;;;;;;13.40;86.38;102494.31;4998492;28;20683;-69
2022/08/08 01:31:50;;;;;;;7.23;5.43;;;;;;;13.36;86.24;102507.03;4985044;28;20712;-70
2022/08/08 01:34:25;;;;;;;6.67;5.50;;;;;;;13.39;86.32;102509.72;5002359;28;20900;-70
2022/08/08 01:37:25;;;;;;;6.77;6.07;;;;;;;13.26;86.79;102500.66;4999380;28;20229;-70
2022/08/08 01:40:16;;;;;;;7.87;5.73;;;;;;;13.33;86.63;102506.91;5010256;28;20221;-71
2022/08/08 01:42:50;;;;;;;6.20;5.53;;;;;;;13.33;87.08;102504.34;5010148;28;20280;-70
2022/08/08 01:45:42;;;;;;;6.40;5.80;;;;;;;13.30;87.13;102499.09;5010136;28;20185;-71
2022/08/08 01:48:33;;;;;;;6.80;5.93;;;;;;;13.25;86.59;102498.06;5007025;28;20183;-71
2022/08/08 01:51:12;;;;;;;6.10;5.57;;;;;;;13.16;86.69;102496.03;5019062;28;20192;-70
2022/08/08 01:53:47;;;;;;;7.60;5.87;;;;;;;13.15;87.22;102509.72;5023502;28;20266;-70
2022/08/08 01:56:38;;;;;;;8.03;5.77;;;;;;;13.15;87.06;102494.28;4990579;28;20198;-68
2022/08/08 01:59:14;;;;;;;6.20;5.60;;;;;;;13.14;87.47;102501.94;4990474;28;20180;-70
2022/08/08 02:01:59;;;;;;;8.27;5.73;;;;;;;13.07;87.72;102506.00;4992241;28;20709;-70
2022/08/08 02:04:35;;;;;;;6.33;5.53;;;;;;;13.04;87.42;102505.00;5009322;28;20197;-69
2022/08/08 02:07:03;;;;;;;8.27;5.70;;;;;;;13.03;87.29;102510.97;5009104;28;20813;-70
2022/08/08 02:09:53;;;;;;;6.20;5.47;;;;;;;12.98;87.49;102510.78;5009676;28;20194;-70
2022/08/08 02:12:27;;;;;;;7.70;5.70;;;;;;;13.01;88.07;102512.59;5009802;28;20794;-70
2022/08/08 02:15:20;;;;;;;6.73;6.03;;;;;;;13.05;88.52;102510.22;5005134;28;20180;-71
2022/08/08 02:18:08;;;;;;;8.93;6.37;;;;;;;13.04;88.76;102511.03;5019149;28;20188;-69
2022/08/08 02:20:41;;;;;;;8.07;6.43;;;;;;;13.03;88.42;102516.13;4993349;28;20335;-70
2022/08/08 02:23:22;;;;;;;8.97;6.47;;;;;;;13.02;88.38;102510.09;5006563;28;20212;-69
2022/08/08 02:26:01;;;;;;;6.93;6.23;;;;;;;12.93;88.80;102517.44;5022211;28;20198;-71
2022/08/08 02:28:47;;;;;;;9.87;6.83;;;;;;;12.88;88.71;102511.25;4992974;28;20214;-70
2022/08/08 02:31:47;;;;;;;9.23;6.47;;;;;;;12.81;88.97;102517.84;5005762;28;20679;-69
2022/08/08 02:34:23;;;;;;;7.27;6.37;;;;;;;12.89;88.49;102508.75;5009642;28;20198;-70
2022/08/08 02:37:13;;;;;;;7.87;6.13;;;;;;;12.82;88.62;102511.03;5008839;28;20182;-69
2022/08/08 02:40:17;;;;;;;11.00;6.40;;;;;;;12.81;89.14;102501.59;5005137;28;20210;-71
2022/08/08 02:43:27;;;;;;;7.50;5.97;;;;;;;12.76;88.78;102510.81;5008723;28;20810;-70
2022/08/08 02:46:11;;;;;;;7.90;6.40;;;;;;;12.78;88.54;102506.59;5000184;28;20186;-71
2022/08/08 02:48:58;;;;;;;7.37;6.67;;;;;;;12.75;88.62;102502.22;5008847;28;20194;-70
2022/08/08 02:52:12;;;;;;;6.97;6.27;;;;;;;12.67;89.01;102503.63;5008631;28;20226;-70
2022/08/08 02:55:12;;;;;;;6.80;5.70;;;;;;;12.61;89.02;102502.50;4998942;28;20198;-70
2022/08/08 02:58:12;;;;;;;8.93;6.33;;;;;;;12.64;88.72;102502.63;5004653;28;20665;-70
2022/08/08 03:00:43;;;;;;;7.40;6.50;;;;;;;12.58;88.96;102497.28;5003832;28;20218;-70
2022/08/08 03:03:15;;;;;;;6.97;6.27;;;;;;;12.54;89.08;102498.84;5008981;28;20203;-70
2022/08/08 03:06:22;;;;;;;7.50;5.90;;;;;;;12.56;89.12;102506.59;5008504;28;20249;-69
2022/08/08 03:09:14;;;;;;;6.27;5.67;;;;;;;12.49;89.43;102509.78;5009076;28;20726;-71
2022/08/08 03:12:09;;;;;;;6.67;5.80;;;;;;;12.45;89.27;102506.19;4996389;28;20215;-71
2022/08/08 03:14:50;;;;;;;7.20;5.77;;;;;;;12.42;89.69;102510.34;4993058;28;20245;-71
2022/08/08 03:17:19;;;;;;;6.93;5.73;;;;;;;12.41;89.60;102512.06;5001052;28;20198;-71
2022/08/08 03:20:10;;;;;;;8.23;6.33;;;;;;;12.38;89.56;102518.75;5008325;28;20210;-69
2022/08/08 03:22:57;;;;;;;8.33;6.40;;;;;;;12.35;89.38;102509.22;5006990;28;20302;-70
2022/08/08 03:25:27;;;;;;;7.23;6.07;;;;;;;12.37;89.38;102512.75;5003128;28;20210;-69
2022/08/08 03:27:58;;;;;;;7.70;6.77;;;;;;;12.38;89.58;102518.75;4988698;28;20183;-68
2022/08/08 03:30:26;;;;;;;6.93;5.93;;;;;;;12.33;89.86;102516.00;4986229;28;20886;-67
2022/08/08 03:35:40;;;;;;;6.90;6.03;;;;;;;12.25;89.87;102519.97;4992947;28;20278;-69
2022/08/08 03:38:08;;;;;;;7.57;6.33;;;;;;;12.23;89.95;102526.75;5008072;28;20187;-69
2022/08/08 03:40:34;;;;;;;9.83;6.60;;;;;;;12.25;90.45;102519.97;5008194;28;20581;-70
2022/08/08 03:43:03;;;;;;;8.63;6.13;;;;;;;12.26;90.23;102524.28;4991027;28;20602;-69
2022/08/08 03:45:29;;;;;;;8.20;6.07;;;;;;;12.27;90.33;102517.47;5008021;28;20293;-69
2022/08/08 03:48:06;;;;;;;7.40;6.20;;;;;;;12.21;90.71;102523.22;5008124;28;20847;-70
2022/08/08 03:50:40;;;;;;;6.73;5.97;;;;;;;12.24;91.00;102532.75;5009135;28;20262;-69
2022/08/08 03:53:11;;;;;;;8.17;6.37;;;;;;;12.25;91.29;102521.63;5009587;28;20242;-69
2022/08/08 03:55:38;;;;;;;6.90;5.53;;;;;;;12.27;91.29;102526.06;5009537;28;20273;-69
2022/08/08 03:58:07;;;;;;;6.83;6.07;;;;;;;12.26;91.50;102521.72;5007821;28;20190;-70
2022/08/08 04:00:33;;;;;;;7.50;6.30;;;;;;;12.31;91.43;102534.75;5008049;28;20273;-70
2022/08/08 04:03:06;;;;;;;7.37;6.23;;;;;;;12.28;91.52;102530.38;5008725;28;20584;-70
2022/08/08 04:05:36;;;;;;;8.20;6.90;;;;;;;12.42;90.67;102531.78;5009347;28;20183;-70
2022/08/08 04:08:18;;;;;;;8.23;7.30;;;;;;;12.52;91.05;102535.56;5003846;28;20257;-69
2022/08/08 04:10:47;;;;;;;9.23;7.03;;;;;;;12.59;90.71;102535.84;5008235;28;20187;-69
2022/08/08 04:13:14;;;;;;;8.13;6.43;;;;;;;12.61;90.73;102535.91;5008167;28;20207;-70
2022/08/08 04:15:39;;;;;;;8.60;6.73;;;;;;;12.71;91.05;102538.03;5008170;28;20205;-69
2022/08/08 04:18:06;;;;;;;8.57;7.20;;;;;;;12.79;90.50;102531.47;5007746;28;20273;-69
2022/08/08 04:20:31;;;;;;;8.07;6.70;;;;;;;12.86;90.37;102534.34;5007951;28;20971;-68
2022/08/08 04:22:57;;;;;;;9.10;6.37;;;;;;;12.94;90.03;102537.19;5008133;28;20207;-70
2022/08/08 04:25:23;;;;;;;9.23;6.07;;;;;;;13.05;89.53;102545.34;5008236;28;20190;-70
2022/08/08 04:27:48;;;;;;;7.90;6.73;;;;;;;13.09;89.33;102537.81;5007913;28;20194;-70
2022/08/08 04:30:15;;;;;;;9.40;6.80;;;;;;;13.17;89.99;102538.06;5008027;28;20206;-70
2022/08/08 04:32:41;;;;;;;9.63;7.23;;;;;;;13.21;89.93;102534.78;4991501;28;20215;-70
2022/08/08 04:35:07;;;;;;;8.93;6.50;;;;;;;13.28;90.12;102537.63;4988631;28;20187;-69
2022/08/08 04:37:36;;;;;;;6.87;5.93;;;;;;;13.34;90.42;102530.13;5007563;28;20187;-68
2022/08/08 04:40:09;;;;;;;9.27;6.83;;;;;;;13.40;90.35;102538.06;5010391;28;20221;-69
2022/08/08 04:42:41;;;;;;;8.93;6.63;;;;;;;13.48;90.58;102541.78;5011347;28;20215;-69
2022/08/08 04:45:07;;;;;;;8.93;6.87;;;;;;;13.55;91.05;102541.19;5011416;28;20707;-69
2022/08/08 04:47:33;;;;;;;6.70;6.00;;;;;;;13.57;90.86;102542.09;5011042;28;20183;-69
2022/08/08 04:49:58;;;;;;;8.33;7.00;;;;;;;13.57;90.67;102542.09;5011137;28;20187;-69
2022/08/08 04:52:24;;;;;;;10.50;6.90;;;;;;;13.58;89.96;102546.41;5010773;28;20294;-69
2022/08/08 04:54:50;;;;;;;7.40;6.33;;;;;;;13.64;89.38;102541.50;4994896;28;20183;-70
2022/08/08 04:57:15;;;;;;;7.23;6.03;;;;;;;13.67;89.54;102543.31;5012115;28;20919;-70
2022/08/08 04:59:42;;;;;;;8.53;6.33;;;;;;;13.70;89.01;102548.53;5011226;28;20223;-70
2022/08/08 05:02:09;;;;;;;8.30;7.40;;;;;;;13.72;89.33;102541.75;4994878;28;20207;-70
2022/08/08 05:04:35;;;;;;;9.97;7.10;;;;;;;13.76;89.51;102541.03;5011072;28;20273;-69
2022/08/08 05:07:01;;;;;;;8.17;7.17;;;;;;;13.75;89.11;102544.41;5010591;28;20282;-69
2022/08/08 05:09:26;;;;;;;8.97;7.17;;;;;;;13.74;89.27;102553.84;5011365;28;20657;-70
2022/08/08 05:11:52;;;;;;;9.53;7.00;;;;;;;13.78;89.01;102550.56;4994721;28;20605;-70
2022/08/08 05:14:17;;;;;;;8.57;7.27;;;;;;;13.81;89.39;102548.06;5010895;28;20274;-71
2022/08/08 05:16:46;;;;;;;8.20;7.30;;;;;;;13.88;88.90;102546.56;5010543;28;20218;-70
2022/08/08 05:19:12;;;;;;;10.23;7.23;;;;;;;13.94;88.58;102542.50;4982230;28;20286;-70
2022/08/08 05:21:42;;;;;;;8.30;7.50;;;;;;;14.06;88.25;102544.59;5010520;28;20640;-70
2022/08/08 05:24:10;;;;;;;9.00;7.23;;;;;;;14.28;87.77;102545.38;5010838;28;20187;-70
2022/08/08 05:26:38;;;;;;;8.57;6.57;;;;;;;14.45;87.14;102548.50;5010388;28;20245;-70
2022/08/08 05:29:07;;;;;;;8.63;7.27;;;;;;;14.56;87.09;102547.13;4994265;28;20191;-69
2022/08/08 05:31:35;;;;;;;9.77;7.20;;;;;;;14.52;87.56;102545.25;5010448;28;20206;-70
2022/08/08 05:34:05;;;;;;;8.43;7.07;;;;;;;14.49;87.40;102545.16;5005374;28;20271;-70
2022/08/08 05:36:34;;;;;;;7.53;6.83;;;;;;;14.53;87.54;102555.63;5010185;28;20194;-70
2022/08/08 05:39:04;;;;;;;8.43;6.33;;;;;;;14.58;86.49;102551.50;5010368;28;20187;-70
2022/08/08 05:41:34;;;;;;;8.03;7.07;;;;;;;14.67;86.79;102550.88;4994151;28;20222;-70
2022/08/08 05:44:11;;;;;;;8.10;7.30;;;;;;;14.88;85.81;102556.69;5010433;28;20274;-70
2022/08/08 05:46:39;;;;;;;9.33;7.67;;;;;;;14.94;86.28;102556.84;5010126;28;20707;-69
2022/08/08 05:49:06;;;;;;;9.47;7.17;;;;;;;15.11;85.32;102559.09;5004472;28;20194;-68
2022/08/08 05:51:32;;;;;;;8.97;7.17;;;;;;;15.39;84.29;102569.41;5009271;28;20290;-70
2022/08/08 05:53:58;;;;;;;8.17;6.73;;;;;;;15.56;84.22;102562.13;5009982;28;20274;-70
2022/08/08 05:56:26;;;;;;;7.07;6.40;;;;;;;15.99;82.54;102564.97;5009530;28;20274;-69
2022/08/08 05:59:02;;;;;;;9.73;6.63;;;;;;;16.24;82.74;102563.00;5009901;28;20213;-70
2022/08/08 06:01:29;;;;;;;7.97;6.27;;;;;;;16.22;82.16;102564.72;4993581;28;20214;-70
2022/08/08 06:04:03;;;;;;;7.13;6.23;;;;;;;16.23;82.24;102563.88;4992862;28;20716;-70
2022/08/08 06:06:33;;;;;;;6.43;5.80;;;;;;;16.29;81.22;102566.59;4991758;28;20195;-70
2022/08/08 06:09:02;;;;;;;6.50;5.77;;;;;;;16.35;80.03;102565.88;4990072;28;20215;-70
2022/08/08 06:11:30;;;;;;;8.77;6.07;;;;;;;16.51;78.89;102568.00;4990185;28;20208;-69
2022/08/08 06:13:56;;;;;;;6.83;5.47;;;;;;;16.88;79.90;102568.84;4990142;28;20195;-70
2022/08/08 06:16:23;;;;;;;7.73;6.30;;;;;;;16.89;79.59;102570.59;4989840;28;20238;-68
2022/08/08 06:19:01;;;;;;;9.93;6.80;;;;;;;16.94;79.45;102571.56;4989921;28;20202;-70
2022/08/08 06:21:28;;;;;;;9.40;6.77;;;;;;;16.90;80.01;102569.75;4989699;28;20219;-70
2022/08/08 06:23:54;;;;;;;8.50;6.20;;;;;;;16.89;79.45;102573.19;4991128;28;20242;-70
2022/08/08 06:26:23;;;;;;;7.43;6.57;;;;;;;17.04;79.31;102576.06;4991002;28;20186;-73
2022/08/08 06:29:04;;;;;;;8.37;6.87;;;;;;;17.20;78.85;102585.94;4964129;28;20184;-71
2022/08/08 06:31:36;;;;;;;13.30;7.17;;;;;;;17.42;78.79;102577.78;4983646;28;20211;-71
2022/08/08 06:34:17;;;;;;;7.40;6.60;;;;;;;17.46;77.43;102576.13;4982861;28;20188;-71
2022/08/08 06:36:49;;;;;;;8.33;6.77;;;;;;;17.44;77.14;102581.25;4981925;28;20360;-71
2022/08/08 06:39:16;;;;;;;7.87;6.20;;;;;;;17.44;77.68;102575.19;4993773;28;20187;-70
2022/08/08 06:41:48;;;;;;;7.20;6.40;;;;;;;17.43;77.35;102584.69;5000170;28;20707;-71
2022/08/08 06:44:17;;;;;;;6.63;5.87;;;;;;;17.99;75.46;102588.31;4997768;28;20612;-72
2022/08/08 06:46:43;;;;;;;6.90;5.93;;;;;;;18.36;74.49;102588.09;4993232;28;20187;-71
2022/08/08 06:49:10;;;;;;;8.50;6.37;;;;;;;18.63;73.33;102585.94;4973156;28;20231;-72
2022/08/08 06:51:36;;;;;;;8.73;5.57;;;;;;;18.89;72.57;102584.56;4988816;28;20235;-71
2022/08/08 06:54:02;;;;;;;7.57;5.10;;;;;;;19.12;71.15;102586.59;4996871;28;20188;-71
2022/08/08 06:56:33;;;;;;;5.93;5.33;;;;;;;19.32;70.49;102584.28;5008753;28;20547;-72
2022/08/08 06:59:00;;;;;;;5.67;5.10;;;;;;;19.53;69.95;102581.94;4969189;28;20328;-71
2022/08/08 07:01:34;;;;;;;6.23;4.97;;;;;;;19.73;69.98;102583.88;4971694;28;20708;-70
2022/08/08 07:04:10;;;;;;;5.33;4.80;;;;;;;19.93;68.25;102579.72;4989351;28;20576;-71
2022/08/08 07:06:40;;;;;;;7.77;4.40;;;;;;;20.13;65.97;102582.56;4989162;28;20730;-71
2022/08/08 07:09:14;;;;;;;5.53;3.90;;;;;;;20.13;66.64;102591.22;4990063;28;20270;-70
2022/08/08 07:11:44;;;;;;;5.60;4.27;;;;;;;20.06;66.73;102585.91;5003904;28;20946;-72
2022/08/08 07:14:16;;;;;;;4.87;3.93;;;;;;;20.35;65.58;102582.72;5008504;28;20213;-70
2022/08/08 07:17:17;;;;;;;4.03;3.53;;;;;;;20.54;64.37;102576.78;5004976;28;20236;-70
2022/08/08 07:20:04;;;;;;;5.83;3.30;;;;;;;20.68;64.37;102575.13;5003549;28;20206;-71
2022/08/08 07:22:46;;;;;;;6.03;3.07;;;;;;;20.89;60.63;102574.38;5008546;28;20316;-71
2022/08/08 07:25:12;;;;;;;4.43;2.77;;;;;;;21.19;59.18;102580.63;5008243;28;20628;-71
2022/08/08 07:27:44;;;;;;;2.70;2.50;;;;;;;21.22;57.74;102580.66;4991768;28;20326;-70
2022/08/08 07:30:11;;;;;;;3.13;2.63;;;;;;;21.42;57.82;102588.53;5001678;28;20176;-71
2022/08/08 07:32:41;;;;;;;3.63;2.20;;;;;;;21.35;57.63;102581.56;5034903;28;20211;-70
2022/08/08 07:35:10;;;;;;;3.97;2.60;;;;;;;21.60;56.10;102581.63;4988908;28;20567;-70
2022/08/08 07:37:42;;;;;;;2.87;2.33;;;;;;;21.90;55.20;102576.50;4988843;28;20266;-69
2022/08/08 07:40:09;;;;;;;4.10;2.70;;;;;;;22.02;54.81;102579.09;4988692;28;20216;-71
2022/08/08 07:42:37;;;;;;;2.87;2.20;;;;;;;22.26;55.14;102589.53;4988338;28;20243;-71
2022/08/08 07:45:06;;;;;;;4.90;2.70;;;;;;;22.34;52.68;102587.78;4988233;28;20566;-70
2022/08/08 07:47:35;;;;;;;2.90;2.40;;;;;;;22.33;51.81;102586.06;4988400;28;20274;-71
2022/08/08 07:50:01;;;;;;;4.67;2.53;;;;;;;22.62;53.46;102578.22;4989930;28;20711;-71
2022/08/08 07:52:29;;;;;;;2.43;2.23;;;;;;;22.78;53.51;102585.13;4987866;28;20253;-73
2022/08/08 07:55:20;;;;;;;3.27;2.50;;;;;;;22.92;51.37;102588.56;4988455;28;20278;-73
2022/08/08 07:58:18;;;;;;;3.67;2.70;;;;;;;23.15;51.31;102581.50;4988332;28;20223;-73
2022/08/08 08:00:53;;;;;;;4.37;2.43;;;;;;;23.17;49.57;102597.19;4987965;28;20322;-72
2022/08/08 08:03:34;;;;;;;3.80;2.73;;;;;;;23.27;49.29;102586.75;4972601;28;20624;-71
2022/08/08 08:06:04;;;;;;;3.13;2.80;;;;;;;23.41;47.91;102590.16;4988419;28;20183;-72
2022/08/08 08:08:55;;;;;;;4.23;3.33;;;;;;;23.64;48.69;102596.13;4973532;28;20180;-72
2022/08/08 08:11:27;;;;;;;4.17;3.10;;;;;;;23.61;47.41;102590.03;4988380;28;20218;-70
2022/08/08 08:13:57;;;;;;;3.50;2.80;;;;;;;23.69;47.89;102591.72;4989913;28;20187;-73
2022/08/08 08:16:27;;;;;;;3.43;2.93;;;;;;;23.94;47.81;102587.22;4991852;28;20226;-71
2022/08/08 08:19:00;;;;;;;5.50;3.00;;;;;;;24.18;47.90;102590.50;4980606;28;20200;-72
2022/08/08 08:21:44;;;;;;;5.60;2.92;;;;;;;24.40;48.53;102593.81;4991869;28;20224;-71
2022/08/08 08:24:15;;;;;;;4.85;3.25;;;;;;;24.59;46.43;102585.78;4958281;28;20236;-73
2022/08/08 08:26:41;;;;;;;4.30;2.88;;;;;;;24.68;45.93;102584.84;4980780;28;20195;-72
2022/08/08 08:29:08;;;;;;;6.30;2.70;;;;;;;24.87;46.44;102583.75;4991186;28;20191;-71
2022/08/08 08:31:35;;;;;;;4.47;2.45;;;;;;;25.09;43.53;102585.22;5001510;28;20206;-73
2022/08/08 08:34:01;;;;;;;5.07;2.53;;;;;;;25.26;44.20;102578.00;5011342;28;20198;-72
2022/08/08 08:36:27;;;;;;;4.25;2.40;;;;;;;25.26;45.24;102581.53;5010754;28;20191;-73
2022/08/08 08:38:53;;;;;;;6.75;2.85;;;;;;;25.31;43.24;102589.31;5000228;28;20217;-71
2022/08/08 08:41:27;;;;;;;3.47;2.70;;;;;;;25.37;42.40;102595.34;4991446;28;20804;-70
2022/08/08 08:43:53;;;;;;;4.05;2.70;;;;;;;25.50;42.42;102593.47;4992668;28;20881;-72
2022/08/08 08:46:19;;;;;;;4.18;2.50;;;;;;;25.70;42.96;102594.88;4991145;28;20191;-72
2022/08/08 08:48:46;;;;;;;3.28;2.30;;;;;;;25.60;42.63;102598.53;4991472;28;20188;-73
2022/08/08 08:51:14;;;;;;;3.53;2.63;;;;;;;25.94;41.63;102596.31;4991609;28;20183;-72
2022/08/08 08:53:52;;;;;;;3.17;2.25;;;;;;;25.57;41.30;102601.22;4984662;28;20833;-72
2022/08/08 08:56:24;;;;;;;6.18;2.60;;;;;;;25.59;41.44;102599.44;4984219;28;20190;-70
2022/08/08 08:58:51;;;;;;;3.58;2.33;;;;;;;26.11;40.91;102591.66;4998719;28;20187;-71
2022/08/08 09:01:26;;;;;;;3.80;2.75;;;;;;;26.36;41.38;102601.72;5003256;28;20262;-72
2022/08/08 09:03:58;;;;;;;4.50;2.72;;;;;;;25.82;39.99;102594.72;5010835;28;20195;-72
2022/08/08 09:06:35;;;;;;;3.47;2.60;;;;;;;25.85;41.59;102601.66;4983469;28;20206;-70
2022/08/08 09:09:12;;;;;;;5.20;2.65;;;;;;;26.01;41.56;102605.84;4991922;28;20314;-72
2022/08/08 09:11:43;;;;;;;4.07;2.83;;;;;;;26.15;41.17;102607.34;4992863;28;20342;-72
2022/08/08 09:14:10;;;;;;;4.43;2.70;;;;;;;26.08;40.53;102608.34;4989420;28;20194;-69
2022/08/08 09:16:37;;;;;;;2.97;2.67;;;;;;;26.07;41.08;102603.09;4960741;28;20195;-70
2022/08/08 09:19:03;;;;;;;2.97;2.55;;;;;;;25.98;41.25;102598.88;4982315;28;20192;-71
2022/08/08 09:21:30;;;;;;;5.18;3.13;;;;;;;26.09;39.80;102598.69;4991492;28;20215;-71
2022/08/08 09:23:58;;;;;;;4.28;2.35;;;;;;;26.41;39.74;102592.00;4986812;28;20187;-75
2022/08/08 09:26:49;;;;;;;3.35;2.40;;;;;;;26.88;39.38;102593.75;4982784;28;20223;-72
2022/08/08 09:29:23;;;;;;;2.97;2.20;;;;;;;26.83;38.71;102587.72;4969899;28;20219;-72
2022/08/08 09:31:54;;;;;;;6.18;2.75;;;;;;;27.09;40.55;102590.69;4971473;28;20235;-72
2022/08/08 09:34:23;;;;;;;2.53;2.33;;;;;;;27.00;38.93;102593.53;4957714;28;20251;-71
2022/08/08 09:36:59;;;;;;;4.18;2.47;;;;;;;27.85;38.35;102585.50;4969349;28;20212;-72
2022/08/08 09:39:30;;;;;;;2.97;2.22;;;;;;;28.35;37.16;102587.75;4971188;28;20664;-71
2022/08/08 09:42:03;;;;;;;6.57;2.63;;;;;;;28.55;36.88;102577.59;4969015;28;20307;-69
2022/08/08 09:44:42;;;;;;;3.40;2.10;;;;;;;28.33;37.67;102579.88;4960338;28;20195;-72
2022/08/08 09:47:08;;;;;;;3.67;2.67;;;;;;;28.20;37.49;102586.41;4981338;28;20239;-72
2022/08/08 09:49:36;;;;;;;3.35;2.40;;;;;;;28.02;38.48;102591.25;4972411;28;20192;-71
2022/08/08 09:52:02;;;;;;;4.03;2.70;;;;;;;28.29;37.82;102578.25;4972450;28;20223;-71
2022/08/08 09:54:41;;;;;;;3.67;2.70;;;;;;;28.18;37.20;102585.56;4972548;28;20196;-72
2022/08/08 09:57:09;;;;;;;4.50;2.70;;;;;;;28.55;36.98;102582.88;4988809;28;20573;-71
2022/08/08 09:59:38;;;;;;;2.55;2.30;;;;;;;28.74;35.13;102582.31;4991495;28;20219;-72
2022/08/08 10:02:05;;;;;;;5.22;2.70;;;;;;;28.44;36.14;102579.63;4991848;28;20279;-71
2022/08/08 10:04:33;;;;;;;4.85;3.08;;;;;;;28.48;35.70;102584.81;4991672;28;20188;-71
2022/08/08 10:07:02;;;;;;;4.25;2.85;;;;;;;28.67;35.63;102578.13;4991349;28;20176;-71
2022/08/08 10:09:32;;;;;;;3.20;2.75;;;;;;;28.67;35.41;102571.97;4991441;28;20188;-72
2022/08/08 10:12:03;;;;;;;4.22;2.85;;;;;;;28.30;34.98;102579.97;4991341;28;20275;-71
2022/08/08 10:14:37;;;;;;;4.07;3.03;;;;;;;27.68;36.16;102572.72;4991335;28;20196;-72
2022/08/08 10:17:08;;;;;;;3.60;2.95;;;;;;;27.82;36.24;102577.69;4991416;28;20525;-72
2022/08/08 10:19:38;;;;;;;4.28;2.85;;;;;;;28.35;36.46;102569.28;4991237;28;20338;-72
2022/08/08 10:22:05;;;;;;;6.38;2.78;;;;;;;28.57;37.25;102579.28;4991471;28;20714;-71
2022/08/08 10:24:34;;;;;;;3.78;2.80;;;;;;;28.45;35.30;102571.69;4991165;28;20183;-71
2022/08/08 10:27:05;;;;;;;4.72;2.80;;;;;;;28.26;36.40;102574.81;4990964;28;20202;-70
2022/08/08 10:29:39;;;;;;;3.40;2.90;;;;;;;28.28;36.66;102567.75;4991281;28;20191;-72
2022/08/08 10:34:58;;;;;;;5.68;2.92;;;;;;;28.44;36.95;102569.97;4991441;28;20649;-72
2022/08/08 10:37:29;;;;;;;4.05;3.00;;;;;;;28.73;35.79;102566.53;4990199;28;20568;-72
2022/08/08 10:39:55;;;;;;;5.10;3.38;;;;;;;29.61;36.40;102565.69;4990956;28;20196;-70
2022/08/08 10:42:32;;;;;;;3.40;3.10;;;;;;;29.88;35.29;102564.75;4990985;28;20472;-71
2022/08/08 10:45:00;;;;;;;3.75;3.13;;;;;;;29.59;34.97;102562.19;4983568;28;20241;-72
2022/08/08 10:47:26;;;;;;;7.32;3.05;;;;;;;29.52;34.78;102563.28;4977743;28;20189;-72
2022/08/08 10:49:55;;;;;;;4.28;2.80;;;;;;;29.40;35.40;102567.19;4971344;28;20717;-72
2022/08/08 10:52:28;;;;;;;5.32;2.97;;;;;;;29.45;36.94;102567.03;4971408;28;20211;-72
2022/08/08 10:54:56;;;;;;;3.90;2.55;;;;;;;29.39;34.40;102572.50;4971312;28;20184;-71
2022/08/08 10:57:22;;;;;;;4.82;2.88;;;;;;;28.89;35.91;102568.69;4977916;28;20192;-72
2022/08/08 10:59:56;;;;;;;6.35;3.22;;;;;;;28.33;35.56;102573.75;4990036;28;20190;-71
2022/08/08 11:02:40;;;;;;;4.38;2.80;;;;;;;28.12;37.42;102569.03;4971197;28;20628;-71
2022/08/08 11:05:09;;;;;;;4.60;2.95;;;;;;;27.97;36.37;102565.03;4971181;28;20222;-71
2022/08/08 11:07:37;;;;;;;5.10;2.75;;;;;;;27.69;37.79;102573.59;4945676;28;20184;-71
2022/08/08 11:10:06;;;;;;;3.45;2.60;;;;;;;27.24;37.64;102574.63;4969001;28;20172;-71
2022/08/08 11:12:33;;;;;;;4.85;2.85;;;;;;;27.05;38.77;102565.34;4954093;28;20212;-71
2022/08/08 11:15:00;;;;;;;4.75;2.45;;;;;;;27.19;38.72;102574.72;4970027;28;20607;-72
2022/08/08 11:17:28;;;;;;;3.60;2.90;;;;;;;26.96;38.97;102571.69;4971220;28;20179;-72
2022/08/08 11:19:54;;;;;;;3.40;2.83;;;;;;;26.96;38.82;102570.78;4971045;28;20201;-71
2022/08/08 11:22:26;;;;;;;4.57;3.00;;;;;;;26.78;39.51;102582.56;4971612;28;20247;-72
2022/08/08 11:24:57;;;;;;;5.45;3.00;;;;;;;26.72;39.85;102582.69;4970558;28;20969;-72
2022/08/08 11:27:26;;;;;;;7.80;3.00;;;;;;;26.57;40.66;102576.84;4971312;28;20642;-71
2022/08/08 11:29:56;;;;;;;5.18;2.75;;;;;;;26.41;39.76;102573.59;4971221;28;20255;-71
2022/08/08 11:32:24;;;;;;;6.45;3.20;;;;;;;26.35;41.17;102565.84;4971145;28;20860;-72
2022/08/08 11:34:57;;;;;;;5.55;2.92;;;;;;;25.97;41.26;102578.72;4971086;28;20200;-72
2022/08/08 11:37:25;;;;;;;4.13;3.00;;;;;;;26.09;41.28;102578.53;4970841;28;20208;-72
2022/08/08 11:39:50;;;;;;;5.35;3.05;;;;;;;26.20;41.37;102578.38;4969496;28;20192;-72
2022/08/08 11:42:18;;;;;;;4.85;3.25;;;;;;;26.36;42.36;102579.81;4970744;28;20208;-72
2022/08/08 11:44:44;;;;;;;5.38;2.70;;;;;;;26.29;41.89;102586.09;4985060;28;20227;-71
2022/08/08 11:47:11;;;;;;;6.00;2.70;;;;;;;26.59;41.50;102581.19;4979300;28;20188;-72
2022/08/08 11:49:39;;;;;;;5.85;2.50;;;;;;;26.69;41.98;102574.84;4974459;28;20211;-71
2022/08/08 11:52:06;;;;;;;3.65;2.17;;;;;;;26.81;42.00;102569.38;4973558;28;20212;-72
2022/08/08 11:54:33;;;;;;;3.72;2.55;;;;;;;26.85;42.01;102571.00;4974804;28;20267;-70
2022/08/08 11:57:09;;;;;;;3.80;2.22;;;;;;;27.02;41.60;102568.03;4976710;28;20192;-72
2022/08/08 11:59:37;;;;;;;4.82;2.40;;;;;;;27.11;41.78;102568.72;4992607;28;20191;-72
2022/08/08 12:02:06;;;;;;;3.75;2.50;;;;;;;27.02;41.04;102575.94;4984000;28;20643;-72